Moorefield, Nebraska
Current Conditions -  °F | °C
As of 11:35 PM on Wednesday 22 Oct 2014 (Local Time) from KLXN Reporting Station
Moderate Fog Moderate Fog  
Wind Chill: 45°   Ceiling: 100
Heat Index: 45°   Visibility: 0.25mi
Dew Point: 44°   Wind: 0mph
Humidity: 95%   Direction: NA
Pressure: 30.07"   Gusts: NA
Location:  40.69°N, 100.4°W
Report Text: KLXN 230435Z AUTO 00000KT 1/4SM FG OVC001 07/07 A3007 RMK AO2 T00740067
Loading
Personal Weather Stations






























Interactive Weather Map
Tropical Storm Tracking
New forecast layout! Learn more

10-Day Weather Forecast

Advertisements
Track Severe Weather on mobile